Henniker, New Hampshire
Current Conditions -  °F | °C
As of 12:51 PM on Friday 31 Oct 2014 (Local Time) from KCON Reporting Station
Overcast Overcast  
Wind Chill: 48°   Ceiling: 5500
Heat Index: 48°   Visibility: 10mi
Dew Point: 31°   Wind: 0mph
Humidity: 52%   Direction: NA
Pressure: 30.02"   Gusts: NA
Location:  43.19°N, 71.82°W
Report Text: KCON 311651Z AUTO 00000KT 10SM OVC055 09/M01 A3002 RMK AO2 SLP169 T00891006
Loading
Personal Weather Stations






























Interactive Weather Map
Tropical Storm Tracking
New forecast layout! Learn more

10-Day Weather Forecast

Advertisements
Track Severe Weather on mobile